Time;durP1;ratioP1;P1;durP2;ratioP2;P2;SDS_P1;SDS_P2;PMS_P1;PMS_P2;Temp;Humidity;BMP_temperature;BMP_pressure;BME280_temperature;BME280_humidity;BME280_pressure;Samples;Min_cycle;Max_cycle;Signal;HPM_P1;HPM_P2
2023/05/27 00:00:16;;;;;;;13.77;10.02;;;;;;;;;;6193212;28;20150;-80
2023/05/27 00:03:19;;;;;;;17.27;9.60;;;;;;;;;;6190695;28;20061;-81
2023/05/27 00:06:21;;;;;;;14.45;9.10;;;;;;;;;;6190682;28;20042;-80
2023/05/27 00:09:22;;;;;;;14.13;9.52;;;;;;;;;;6193657;28;20062;-81
2023/05/27 00:12:24;;;;;;;11.65;9.20;;;;;;;;;;6196155;28;20051;-81
2023/05/27 00:15:26;;;;;;;16.58;9.13;;;;;;;;;;6194411;28;20058;-81
2023/05/27 00:18:32;;;;;;;15.07;9.48;;;;;;;;;;6198941;28;20053;-81
2023/05/27 00:21:34;;;;;;;17.58;9.80;;;;;;;;;;6196119;28;20105;-81
2023/05/27 00:24:37;;;;;;;14.75;8.80;;;;;;;;;;6195356;28;20228;-81
2023/05/27 00:27:38;;;;;;;12.47;8.57;;;;;;;;;;6199502;28;20093;-81
2023/05/27 00:30:40;;;;;;;19.58;9.30;;;;;;;;;;6195198;28;20473;-80
2023/05/27 00:33:45;;;;;;;17.98;10.35;;;;;;;;;;6193535;28;20046;-82
2023/05/27 00:36:46;;;;;;;13.50;9.50;;;;;;;;;;6197830;28;20050;-83
2023/05/27 00:39:48;;;;;;;17.52;10.45;;;;;;;;;;6198264;28;21090;-82
2023/05/27 00:42:50;;;;;;;18.05;10.65;;;;;;;;;;6197262;28;20062;-81
2023/05/27 00:45:51;;;;;;;13.73;9.32;;;;;;;;;;6197151;28;20050;-81
2023/05/27 00:48:55;;;;;;;16.00;9.88;;;;;;;;;;6197174;28;20050;-83
2023/05/27 00:51:57;;;;;;;14.60;9.40;;;;;;;;;;6196145;28;20055;-83
2023/05/27 00:54:59;;;;;;;13.43;8.93;;;;;;;;;;6195789;28;20043;-83
2023/05/27 00:58:01;;;;;;;15.05;9.73;;;;;;;;;;6194391;28;20105;-82
2023/05/27 01:01:02;;;;;;;16.58;9.27;;;;;;;;;;6181078;28;20395;-81
2023/05/27 01:04:06;;;;;;;16.15;9.77;;;;;;;;;;6171427;28;20317;-82
2023/05/27 01:07:11;;;;;;;16.88;9.25;;;;;;;;;;6186152;28;20113;-81
2023/05/27 01:10:18;;;;;;;14.43;9.55;;;;;;;;;;6170161;28;20258;-82
2023/05/27 01:13:27;;;;;;;22.88;10.48;;;;;;;;;;6173345;28;20220;-81
2023/05/27 01:16:30;;;;;;;13.30;9.90;;;;;;;;;;6172560;28;20066;-81
2023/05/27 01:19:35;;;;;;;14.93;9.73;;;;;;;;;;6190019;28;20058;-81
2023/05/27 01:22:41;;;;;;;15.95;10.27;;;;;;;;;;6198586;28;20056;-81
2023/05/27 01:25:42;;;;;;;14.77;9.45;;;;;;;;;;6194881;28;20065;-81
2023/05/27 01:28:44;;;;;;;16.17;9.57;;;;;;;;;;6197293;28;20096;-81
2023/05/27 01:31:49;;;;;;;14.85;8.82;;;;;;;;;;6196531;28;20054;-81
2023/05/27 01:34:55;;;;;;;15.80;9.70;;;;;;;;;;6195293;28;20285;-81
2023/05/27 01:38:00;;;;;;;14.10;9.48;;;;;;;;;;6197103;28;20370;-81
2023/05/27 01:41:02;;;;;;;13.32;9.73;;;;;;;;;;6194281;28;20054;-81
2023/05/27 01:44:05;;;;;;;14.95;9.40;;;;;;;;;;6194079;28;20054;-81
2023/05/27 01:47:07;;;;;;;15.77;10.23;;;;;;;;;;6197279;28;20113;-81
2023/05/27 01:50:09;;;;;;;14.07;9.55;;;;;;;;;;6191875;28;20054;-81
2023/05/27 01:53:12;;;;;;;14.15;10.57;;;;;;;;;;6195587;28;20046;-80
2023/05/27 01:56:14;;;;;;;;;;;;;;;;;;6194336;28;20054;-81
2023/05/27 01:59:15;;;;;;;13.77;10.00;;;;;;;;;;6193574;28;20145;-81
2023/05/27 02:02:17;;;;;;;18.75;10.38;;;;;;;;;;6193413;28;20381;-81
2023/05/27 02:05:19;;;;;;;14.73;9.75;;;;;;;;;;6193694;28;20117;-81
2023/05/27 02:08:22;;;;;;;15.25;9.70;;;;;;;;;;6194615;28;20050;-82
2023/05/27 02:11:25;;;;;;;;;;;;;;;;;;6195349;28;20058;-81
2023/05/27 02:14:27;;;;;;;12.18;9.48;;;;;;;;;;6194694;28;20309;-79
2023/05/27 02:17:28;;;;;;;11.38;8.55;;;;;;;;;;6196285;28;20110;-80
2023/05/27 02:20:30;;;;;;;14.93;9.50;;;;;;;;;;6194175;28;20117;-82
2023/05/27 02:23:33;;;;;;;15.35;9.48;;;;;;;;;;6197494;28;20116;-82
2023/05/27 02:26:35;;;;;;;11.82;9.40;;;;;;;;;;6195277;28;20054;-82
2023/05/27 02:29:36;;;;;;;12.40;8.65;;;;;;;;;;6192563;28;20278;-82
2023/05/27 02:32:38;;;;;;;13.07;8.90;;;;;;;;;;6195341;28;20062;-83
2023/05/27 02:35:40;;;;;;;14.77;9.10;;;;;;;;;;6194019;28;20629;-82
2023/05/27 02:38:44;;;;;;;15.55;9.25;;;;;;;;;;6195866;28;20365;-83
2023/05/27 02:41:45;;;;;;;13.10;9.07;;;;;;;;;;6195645;28;20058;-80
2023/05/27 02:44:47;;;;;;;13.13;9.30;;;;;;;;;;6194922;28;20046;-82
2023/05/27 02:47:49;;;;;;;14.63;9.00;;;;;;;;;;6191407;28;20654;-81
2023/05/27 02:50:51;;;;;;;13.25;9.48;;;;;;;;;;6195782;28;20063;-82
2023/05/27 02:53:54;;;;;;;15.55;9.02;;;;;;;;;;6192605;28;20101;-81
2023/05/27 02:56:56;;;;;;;10.60;8.50;;;;;;;;;;6196060;28;20385;-80
2023/05/27 02:59:57;;;;;;;10.80;8.43;;;;;;;;;;6190432;28;20059;-81
2023/05/27 03:02:59;;;;;;;13.57;7.93;;;;;;;;;;6196138;28;20337;-81
2023/05/27 03:06:01;;;;;;;11.20;7.88;;;;;;;;;;6194259;28;20054;-83
2023/05/27 03:09:05;;;;;;;11.40;7.55;;;;;;;;;;6194096;28;20321;-83
2023/05/27 03:12:07;;;;;;;10.63;6.55;;;;;;;;;;6194943;28;20076;-82
2023/05/27 03:15:09;;;;;;;9.80;5.55;;;;;;;;;;6193195;28;20400;-82
2023/05/27 03:18:10;;;;;;;7.63;5.80;;;;;;;;;;6191437;28;20254;-81
2023/05/27 03:21:12;;;;;;;10.75;5.90;;;;;;;;;;6194632;28;20341;-82
2023/05/27 03:24:15;;;;;;;9.02;5.90;;;;;;;;;;6192262;28;20054;-81
2023/05/27 03:27:17;;;;;;;6.55;4.95;;;;;;;;;;6191995;28;20062;-83
2023/05/27 03:30:18;;;;;;;6.55;4.60;;;;;;;;;;6193870;28;20094;-83
2023/05/27 03:33:20;;;;;;;6.68;4.72;;;;;;;;;;6193905;28;20335;-83
2023/05/27 03:36:22;;;;;;;7.53;5.03;;;;;;;;;;6197856;28;20063;-83
2023/05/27 03:39:25;;;;;;;7.63;5.63;;;;;;;;;;6192178;28;20058;-83
2023/05/27 03:42:26;;;;;;;9.13;6.22;;;;;;;;;;6184277;28;20386;-83
2023/05/27 03:45:28;;;;;;;12.15;7.57;;;;;;;;;;6177969;28;20051;-83
2023/05/27 03:48:30;;;;;;;13.70;8.48;;;;;;;;;;6174110;28;20051;-83
2023/05/27 03:51:32;;;;;;;11.50;8.93;;;;;;;;;;6172078;28;20066;-82
2023/05/27 03:54:35;;;;;;;14.68;9.23;;;;;;;;;;6172750;28;20102;-84
2023/05/27 03:57:36;;;;;;;11.70;9.10;;;;;;;;;;6189199;28;20066;-83
2023/05/27 04:00:38;;;;;;;15.07;9.50;;;;;;;;;;6176756;28;20059;-83
2023/05/27 04:03:41;;;;;;;12.77;8.20;;;;;;;;;;6174805;28;20054;-83
2023/05/27 04:06:43;;;;;;;11.25;8.32;;;;;;;;;;6174875;28;20054;-83
2023/05/27 04:09:46;;;;;;;11.60;7.72;;;;;;;;;;6174265;28;20054;-83
2023/05/27 04:12:48;;;;;;;15.02;7.53;;;;;;;;;;6173384;28;20275;-82
2023/05/27 04:15:50;;;;;;;9.48;6.65;;;;;;;;;;6173594;28;20043;-83
2023/05/27 04:18:51;;;;;;;11.43;7.03;;;;;;;;;;6186700;28;20327;-83
2023/05/27 04:21:53;;;;;;;12.85;7.40;;;;;;;;;;6175651;28;20051;-83
2023/05/27 04:24:56;;;;;;;9.35;6.60;;;;;;;;;;6167421;28;20054;-84
2023/05/27 04:27:58;;;;;;;9.02;5.90;;;;;;;;;;6172369;28;20082;-79
2023/05/27 04:31:00;;;;;;;6.72;5.57;;;;;;;;;;6175900;28;20339;-81
2023/05/27 04:34:03;;;;;;;6.55;4.60;;;;;;;;;;6173260;28;20055;-89
2023/05/27 04:37:05;;;;;;;7.35;4.30;;;;;;;;;;6186387;28;20050;-84
2023/05/27 04:40:10;;;;;;;6.72;4.38;;;;;;;;;;6175891;28;20058;-89
2023/05/27 04:43:14;;;;;;;4.75;3.53;;;;;;;;;;6173903;28;20042;-87
2023/05/27 04:46:16;;;;;;;4.97;3.00;;;;;;;;;;6173820;28;20230;-79
2023/05/27 04:49:18;;;;;;;5.55;3.63;;;;;;;;;;6173572;28;20053;-85
2023/05/27 04:52:21;;;;;;;4.50;3.03;;;;;;;;;;6187002;28;20054;-89
2023/05/27 04:55:26;;;;;;;4.97;3.00;;;;;;;;;;6173171;28;20055;-89
2023/05/27 04:58:28;;;;;;;4.88;2.60;;;;;;;;;;6172161;28;20063;-86
2023/05/27 05:01:39;;;;;;;5.45;3.17;;;;;;;;;;6171710;28;20573;-87
2023/05/27 05:04:41;;;;;;;4.55;2.85;;;;;;;;;;6182011;28;20404;-82
2023/05/27 05:07:43;;;;;;;5.88;3.42;;;;;;;;;;6197538;28;20050;-81
2023/05/27 05:10:47;;;;;;;4.07;2.90;;;;;;;;;;6197500;28;20046;-84
2023/05/27 05:13:48;;;;;;;5.00;3.05;;;;;;;;;;6194392;28;20061;-86
2023/05/27 05:16:50;;;;;;;4.80;3.30;;;;;;;;;;6198091;28;20054;-84
2023/05/27 05:19:52;;;;;;;4.95;3.35;;;;;;;;;;6196599;28;20042;-83
2023/05/27 05:22:53;;;;;;;5.90;3.50;;;;;;;;;;6196790;28;20302;-80
2023/05/27 05:26:05;;;;;;;4.32;3.70;;;;;;;;;;6195111;28;20042;-81
2023/05/27 05:29:07;;;;;;;4.25;3.58;;;;;;;;;;6196727;28;20117;-80
2023/05/27 05:32:11;;;;;;;4.68;3.92;;;;;;;;;;6196530;28;20038;-80
2023/05/27 05:35:12;;;;;;;4.45;3.60;;;;;;;;;;6195220;28;20058;-81
2023/05/27 05:38:14;;;;;;;4.72;3.30;;;;;;;;;;6197614;28;20282;-80
2023/05/27 05:41:17;;;;;;;7.40;4.00;;;;;;;;;;6196353;28;20054;-80
2023/05/27 05:44:19;;;;;;;5.47;3.92;;;;;;;;;;6195915;28;20334;-80
2023/05/27 05:47:21;;;;;;;7.22;4.45;;;;;;;;;;6192359;28;20063;-81
2023/05/27 05:50:23;;;;;;;6.25;4.22;;;;;;;;;;6195139;28;20068;-80
2023/05/27 05:53:24;;;;;;;5.03;3.88;;;;;;;;;;6194229;28;20051;-80
2023/05/27 05:56:27;;;;;;;7.35;4.40;;;;;;;;;;6194404;28;20366;-80
2023/05/27 05:59:29;;;;;;;6.47;5.07;;;;;;;;;;6193357;28;20054;-80
2023/05/27 06:02:31;;;;;;;6.03;4.43;;;;;;;;;;6194496;28;20307;-80
2023/05/27 06:05:33;;;;;;;5.25;4.10;;;;;;;;;;6195857;28;20092;-80
2023/05/27 06:08:35;;;;;;;5.88;4.82;;;;;;;;;;6192330;28;20112;-80
2023/05/27 06:11:38;;;;;;;6.70;5.00;;;;;;;;;;6193400;28;20050;-80
2023/05/27 06:14:40;;;;;;;8.25;5.13;;;;;;;;;;6194272;28;20058;-80
2023/05/27 06:17:42;;;;;;;6.57;4.90;;;;;;;;;;6193590;28;20054;-80
2023/05/27 06:20:44;;;;;;;7.40;5.30;;;;;;;;;;6194187;28;20061;-85
2023/05/27 06:23:45;;;;;;;6.13;5.15;;;;;;;;;;6193376;28;20057;-82
2023/05/27 06:26:49;;;;;;;9.63;5.25;;;;;;;;;;6197108;28;20691;-82
2023/05/27 06:29:51;;;;;;;10.68;4.75;;;;;;;;;;6195683;28;20756;-80
2023/05/27 06:32:53;;;;;;;7.35;4.70;;;;;;;;;;6194988;28;20058;-82
2023/05/27 06:35:54;;;;;;;8.15;5.18;;;;;;;;;;6196966;28;20054;-82
2023/05/27 06:38:57;;;;;;;6.82;5.28;;;;;;;;;;6196110;28;20117;-82
2023/05/27 06:42:00;;;;;;;7.68;6.03;;;;;;;;;;6198380;28;20054;-82
2023/05/27 06:45:01;;;;;;;7.25;5.20;;;;;;;;;;6196601;28;20112;-83
2023/05/27 06:48:03;;;;;;;8.00;5.75;;;;;;;;;;6195713;28;20047;-82
2023/05/27 06:51:06;;;;;;;6.47;5.30;;;;;;;;;;6195302;28;20054;-81
2023/05/27 06:54:08;;;;;;;8.67;5.83;;;;;;;;;;6195290;28;20117;-81
2023/05/27 06:57:11;;;;;;;8.75;5.78;;;;;;;;;;6196524;28;20211;-81
2023/05/27 07:00:14;;;;;;;6.47;5.32;;;;;;;;;;6193002;28;20066;-82
2023/05/27 07:03:15;;;;;;;7.75;5.97;;;;;;;;;;6196826;28;20365;-82
2023/05/27 07:06:17;;;;;;;7.03;5.55;;;;;;;;;;6196371;28;20051;-82
2023/05/27 07:09:19;;;;;;;10.30;5.63;;;;;;;;;;6193150;28;20112;-81
2023/05/27 07:12:23;;;;;;;8.07;5.72;;;;;;;;;;6192625;28;20046;-80
2023/05/27 07:15:26;;;;;;;7.47;5.40;;;;;;;;;;6195773;28;20361;-80
2023/05/27 07:18:29;;;;;;;6.88;5.88;;;;;;;;;;6191997;28;20046;-80
2023/05/27 07:21:30;;;;;;;10.30;6.22;;;;;;;;;;6192670;28;20058;-83
2023/05/27 07:24:33;;;;;;;7.85;6.07;;;;;;;;;;6193310;28;20066;-84
2023/05/27 07:27:36;;;;;;;8.65;5.78;;;;;;;;;;6193077;28;20054;-81
2023/05/27 07:30:37;;;;;;;8.10;6.18;;;;;;;;;;6193515;28;20128;-82
2023/05/27 07:33:40;;;;;;;8.25;5.65;;;;;;;;;;6194754;28;20097;-81
2023/05/27 07:36:42;;;;;;;6.35;5.50;;;;;;;;;;6194510;28;20327;-82
2023/05/27 07:39:43;;;;;;;10.63;6.25;;;;;;;;;;6191809;28;20069;-88
2023/05/27 07:42:46;;;;;;;8.70;5.78;;;;;;;;;;6191836;28;20100;-85
2023/05/27 07:45:48;;;;;;;10.88;5.88;;;;;;;;;;6193057;28;20054;-77
2023/05/27 07:48:50;;;;;;;8.73;6.10;;;;;;;;;;6191393;28;20046;-84
2023/05/27 07:51:51;;;;;;;8.07;6.18;;;;;;;;;;6192291;28;20063;-87
2023/05/27 07:54:53;;;;;;;11.52;6.38;;;;;;;;;;6194526;28;20062;-84
2023/05/27 07:57:56;;;;;;;8.52;5.85;;;;;;;;;;6195235;28;20054;-83
2023/05/27 08:00:58;;;;;;;8.00;5.88;;;;;;;;;;6189337;28;20116;-78
2023/05/27 08:04:00;;;;;;;7.85;6.57;;;;;;;;;;6191665;28;20062;-79
2023/05/27 08:07:02;;;;;;;9.52;5.60;;;;;;;;;;6192287;28;20802;-78
2023/05/27 08:10:04;;;;;;;8.18;5.45;;;;;;;;;;6193226;28;20057;-88
2023/05/27 08:13:07;;;;;;;7.38;6.28;;;;;;;;;;6193548;28;20113;-87
2023/05/27 08:16:09;;;;;;;;;;;;;;;;;;6195155;28;20378;-87
2023/05/27 08:19:11;;;;;;;7.57;5.70;;;;;;;;;;6189863;28;19936;-86
2023/05/27 08:22:13;;;;;;;8.88;6.00;;;;;;;;;;6194454;28;20321;-87
2023/05/27 08:25:15;;;;;;;10.18;5.80;;;;;;;;;;6195246;28;20286;-90
2023/05/27 08:28:18;;;;;;;12.50;6.10;;;;;;;;;;6186596;28;20046;-91
2023/05/27 08:31:20;;;;;;;10.05;5.63;;;;;;;;;;6196435;28;20057;-90
2023/05/27 08:34:21;;;;;;;9.82;5.70;;;;;;;;;;6197784;28;20070;-89
2023/05/27 08:37:23;;;;;;;9.05;5.50;;;;;;;;;;6196137;28;20058;-89
2023/05/27 08:40:25;;;;;;;7.40;5.50;;;;;;;;;;6192675;28;20279;-90
2023/05/27 08:43:28;;;;;;;8.13;5.78;;;;;;;;;;6198741;28;20093;-88
2023/05/27 08:46:31;;;;;;;8.18;5.60;;;;;;;;;;6196831;28;20047;-88
2023/05/27 08:49:33;;;;;;;8.05;6.13;;;;;;;;;;6197070;28;20061;-88
2023/05/27 08:52:34;;;;;;;8.13;5.85;;;;;;;;;;6197677;28;20238;-88
2023/05/27 08:55:38;;;;;;;8.23;6.18;;;;;;;;;;6196847;28;20054;-88
2023/05/27 08:58:43;;;;;;;8.55;6.07;;;;;;;;;;6198300;28;20081;-88
2023/05/27 09:01:45;;;;;;;8.48;5.90;;;;;;;;;;6195379;28;20097;-85
2023/05/27 09:04:47;;;;;;;8.03;5.93;;;;;;;;;;6195096;28;20050;-86
2023/05/27 09:07:49;;;;;;;7.72;6.57;;;;;;;;;;6178522;28;20101;-87
2023/05/27 09:10:50;;;;;;;13.27;6.88;;;;;;;;;;6196415;28;20049;-92
2023/05/27 09:13:56;;;;;;;10.00;6.63;;;;;;;;;;6170648;28;20054;-88
2023/05/27 09:16:58;;;;;;;8.75;6.15;;;;;;;;;;6176231;28;20055;-88
2023/05/27 09:20:00;;;;;;;9.43;7.00;;;;;;;;;;6196901;28;20392;-79
2023/05/27 09:23:03;;;;;;;7.10;5.97;;;;;;;;;;6196446;28;20058;-79
2023/05/27 09:26:08;;;;;;;8.15;6.60;;;;;;;;;;6197089;28;20058;-80
2023/05/27 09:29:11;;;;;;;10.15;5.93;;;;;;;;;;6197694;28;20062;-81
2023/05/27 09:32:13;;;;;;;7.75;6.47;;;;;;;;;;6192584;28;20365;-79
2023/05/27 09:35:16;;;;;;;9.45;6.35;;;;;;;;;;6195384;28;20061;-80
2023/05/27 09:38:18;;;;;;;9.82;6.00;;;;;;;;;;6193383;28;20066;-80
2023/05/27 09:41:24;;;;;;;8.27;6.78;;;;;;;;;;6196538;28;20054;-79
2023/05/27 09:44:29;;;;;;;7.25;6.30;;;;;;;;;;6194696;28;20078;-80
2023/05/27 09:47:31;;;;;;;7.00;6.22;;;;;;;;;;6196088;28;20118;-79
2023/05/27 09:50:34;;;;;;;9.77;6.72;;;;;;;;;;6195872;28;20046;-86
2023/05/27 09:53:36;;;;;;;7.40;6.28;;;;;;;;;;6194064;28;20065;-81
2023/05/27 09:56:38;;;;;;;8.32;7.13;;;;;;;;;;6198217;28;20066;-82
2023/05/27 09:59:41;;;;;;;8.13;7.20;;;;;;;;;;6193445;28;20062;-82
2023/05/27 10:02:46;;;;;;;8.75;7.25;;;;;;;;;;6193497;28;20058;-82
2023/05/27 10:05:50;;;;;;;8.43;7.07;;;;;;;;;;6193732;28;20050;-85
2023/05/27 10:08:53;;;;;;;9.70;7.00;;;;;;;;;;6191732;28;20049;-84
2023/05/27 10:11:55;;;;;;;;;;;;;;;;;;6195115;28;20061;-84
2023/05/27 10:14:59;;;;;;;8.75;6.47;;;;;;;;;;6197815;28;19926;-87
2023/05/27 10:18:02;;;;;;;7.95;7.13;;;;;;;;;;6190624;28;20047;-85
2023/05/27 10:21:05;;;;;;;9.52;6.80;;;;;;;;;;6171702;28;20058;-82
2023/05/27 10:24:11;;;;;;;8.25;6.60;;;;;;;;;;6171509;28;20105;-85
2023/05/27 10:27:13;;;;;;;7.72;6.50;;;;;;;;;;6181153;28;20046;-86
2023/05/27 10:30:16;;;;;;;9.02;6.95;;;;;;;;;;6172460;28;20507;-84
2023/05/27 10:33:29;;;;;;;9.75;7.20;;;;;;;;;;6170862;28;20054;-81
2023/05/27 10:36:32;;;;;;;;;;;;;;;;;;6175414;28;20098;-81
2023/05/27 10:39:34;;;;;;;7.78;7.00;;;;;;;;;;6183379;28;19926;-80
2023/05/27 10:42:35;;;;;;;12.03;8.57;;;;;;;;;;6195278;28;20058;-81
2023/05/27 10:45:38;;;;;;;9.73;7.30;;;;;;;;;;6193204;28;20046;-82
2023/05/27 10:48:40;;;;;;;10.30;8.00;;;;;;;;;;6195383;28;20081;-83
2023/05/27 10:51:44;;;;;;;9.43;7.07;;;;;;;;;;6190933;28;20050;-79
2023/05/27 10:54:46;;;;;;;8.48;7.20;;;;;;;;;;6191787;28;20322;-79
2023/05/27 10:57:48;;;;;;;9.43;6.97;;;;;;;;;;6196254;28;20073;-79
2023/05/27 11:00:52;;;;;;;11.75;9.10;;;;;;;;;;6191549;28;20261;-78
2023/05/27 11:03:54;;;;;;;8.40;7.53;;;;;;;;;;6188479;28;20051;-80
2023/05/27 11:06:59;;;;;;;8.38;6.72;;;;;;;;;;6192422;28;20271;-78
2023/05/27 11:10:01;;;;;;;10.20;9.05;;;;;;;;;;6190921;28;20339;-77
2023/05/27 11:13:02;;;;;;;10.90;7.80;;;;;;;;;;6190599;28;20088;-76
2023/05/27 11:16:07;;;;;;;9.80;8.80;;;;;;;;;;6189005;28;20416;-77
2023/05/27 11:19:12;;;;;;;11.15;8.32;;;;;;;;;;6193407;28;20277;-77
2023/05/27 11:22:14;;;;;;;10.05;8.85;;;;;;;;;;6191776;28;20054;-75
2023/05/27 11:25:16;;;;;;;8.88;7.43;;;;;;;;;;6191036;28;20078;-76
2023/05/27 11:28:18;;;;;;;11.30;7.22;;;;;;;;;;6191859;28;20065;-82
2023/05/27 11:31:22;;;;;;;9.57;8.60;;;;;;;;;;6194391;28;20054;-78
2023/05/27 11:34:24;;;;;;;9.75;8.25;;;;;;;;;;6189174;28;20101;-78
2023/05/27 11:37:32;;;;;;;8.17;7.37;;;;;;;;;;6192362;28;20093;-79
2023/05/27 11:40:38;;;;;;;8.70;7.55;;;;;;;;;;6192979;28;20038;-80
2023/05/27 11:43:48;;;;;;;8.40;7.30;;;;;;;;;;6193121;28;20055;-81
2023/05/27 11:46:52;;;;;;;8.02;7.22;;;;;;;;;;6195266;28;20334;-83
2023/05/27 11:49:54;;;;;;;8.75;6.30;;;;;;;;;;6193461;28;20382;-80
2023/05/27 11:52:57;;;;;;;8.15;6.97;;;;;;;;;;6190146;28;20062;-80
2023/05/27 11:55:58;;;;;;;7.93;5.95;;;;;;;;;;6195380;28;20058;-79
2023/05/27 11:59:00;;;;;;;9.32;8.35;;;;;;;;;;6192605;28;20239;-79
2023/05/27 12:02:04;;;;;;;7.00;6.30;;;;;;;;;;6187163;28;20059;-78
2023/05/27 12:05:07;;;;;;;11.60;7.40;;;;;;;;;;6169317;28;20074;-79
2023/05/27 12:08:09;;;;;;;9.73;7.07;;;;;;;;;;6174750;28;20203;-78
2023/05/27 12:11:11;;;;;;;7.35;6.40;;;;;;;;;;6173917;28;20063;-78
2023/05/27 12:14:12;;;;;;;9.40;6.78;;;;;;;;;;6175105;28;20055;-78
2023/05/27 12:17:15;;;;;;;9.35;7.13;;;;;;;;;;6172617;28;20063;-78
2023/05/27 12:20:18;;;;;;;7.10;6.40;;;;;;;;;;6170814;28;20051;-78
2023/05/27 12:23:19;;;;;;;;;;;;;;;;;;6174574;28;20314;-79
2023/05/27 12:26:21;;;;;;;7.82;6.38;;;;;;;;;;6173538;28;19925;-80
2023/05/27 12:29:25;;;;;;;7.72;6.78;;;;;;;;;;6171784;28;20157;-80
2023/05/27 12:32:28;;;;;;;6.38;5.45;;;;;;;;;;6198145;28;20136;-80
2023/05/27 12:35:30;;;;;;;5.35;4.65;;;;;;;;;;6181263;28;20272;-80
2023/05/27 12:38:32;;;;;;;6.95;4.95;;;;;;;;;;6173489;28;20047;-82
2023/05/27 12:41:34;;;;;;;;;;;;;;;;;;6174200;28;20133;-79
2023/05/27 12:44:36;;;;;;;6.88;5.40;;;;;;;;;;6183007;28;19926;-78
2023/05/27 12:47:39;;;;;;;6.38;4.60;;;;;;;;;;6195323;28;20105;-81
2023/05/27 12:50:41;;;;;;;6.97;5.28;;;;;;;;;;6157434;28;20267;-79
2023/05/27 12:53:42;;;;;;;;;;;;;;;;;;6174091;28;20081;-79
2023/05/27 12:56:44;;;;;;;7.93;5.80;;;;;;;;;;6189364;28;20744;-79
2023/05/27 12:59:46;;;;;;;6.45;5.75;;;;;;;;;;6176713;28;20335;-79
2023/05/27 13:02:50;;;;;;;7.38;5.10;;;;;;;;;;6173129;28;20047;-80
2023/05/27 13:05:52;;;;;;;8.32;6.25;;;;;;;;;;6173496;28;20059;-87
2023/05/27 13:08:54;;;;;;;6.55;5.72;;;;;;;;;;6176367;28;20346;-86
2023/05/27 13:11:55;;;;;;;6.35;5.32;;;;;;;;;;6178520;28;20055;-87
2023/05/27 13:14:59;;;;;;;6.60;5.28;;;;;;;;;;6165175;28;20053;-87
2023/05/27 13:18:03;;;;;;;5.43;4.90;;;;;;;;;;6186803;28;20066;-89
2023/05/27 13:21:06;;;;;;;5.90;5.03;;;;;;;;;;6162855;28;20050;-89
2023/05/27 13:24:08;;;;;;;6.72;5.47;;;;;;;;;;6171490;28;20055;-82
2023/05/27 13:27:09;;;;;;;7.68;4.93;;;;;;;;;;6170463;28;20054;-78
2023/05/27 13:30:14;;;;;;;6.38;5.65;;;;;;;;;;6171271;28;20049;-79
2023/05/27 13:33:18;;;;;;;6.13;5.15;;;;;;;;;;6176290;28;20055;-79
2023/05/27 13:36:19;;;;;;;7.97;5.32;;;;;;;;;;6152210;28;20058;-79
2023/05/27 13:39:21;;;;;;;6.70;5.00;;;;;;;;;;6163530;28;21116;-81
2023/05/27 13:42:22;;;;;;;7.05;5.60;;;;;;;;;;6173224;28;20118;-79
2023/05/27 13:45:24;;;;;;;7.97;5.85;;;;;;;;;;6171753;28;20283;-78
2023/05/27 13:48:28;;;;;;;6.18;4.82;;;;;;;;;;6170058;28;20268;-79
2023/05/27 13:51:30;;;;;;;4.63;4.20;;;;;;;;;;6172706;28;20127;-80
2023/05/27 13:54:32;;;;;;;6.93;4.85;;;;;;;;;;6169222;28;20070;-80
2023/05/27 13:57:33;;;;;;;6.70;5.15;;;;;;;;;;6170879;28;20601;-80
2023/05/27 14:00:35;;;;;;;7.57;5.82;;;;;;;;;;6170592;28;20109;-80
2023/05/27 14:03:39;;;;;;;6.28;5.13;;;;;;;;;;6169580;28;20058;-81
2023/05/27 14:06:41;;;;;;;4.85;4.35;;;;;;;;;;6171070;28;20080;-80
2023/05/27 14:09:42;;;;;;;6.88;5.25;;;;;;;;;;6171410;28;20069;-81
2023/05/27 14:12:44;;;;;;;5.68;5.07;;;;;;;;;;6172238;28;20174;-81
2023/05/27 14:15:46;;;;;;;5.85;4.72;;;;;;;;;;6188944;28;20105;-80
2023/05/27 14:18:49;;;;;;;;;;;;;;;;;;6170793;28;20050;-80
2023/05/27 14:21:50;;;;;;;6.50;4.68;;;;;;;;;;6186728;28;20170;-80
2023/05/27 14:24:52;;;;;;;6.22;5.25;;;;;;;;;;6192278;28;20463;-80
2023/05/27 14:27:54;;;;;;;5.45;4.53;;;;;;;;;;6193388;28;20065;-80
2023/05/27 14:30:56;;;;;;;7.55;5.45;;;;;;;;;;6194609;28;20038;-79
2023/05/27 14:33:59;;;;;;;9.02;5.80;;;;;;;;;;6196704;28;20062;-80
2023/05/27 14:37:01;;;;;;;6.35;5.68;;;;;;;;;;6191547;28;20056;-81
2023/05/27 14:40:03;;;;;;;13.95;6.95;;;;;;;;;;6192456;28;20065;-78
2023/05/27 14:43:05;;;;;;;;;;;;;;;;;;6177191;28;20401;-81
2023/05/27 14:46:07;;;;;;;9.60;7.47;;;;;;;;;;6190624;28;20182;-78
2023/05/27 14:49:10;;;;;;;8.35;6.75;;;;;;;;;;6191437;28;20327;-79
2023/05/27 14:52:12;;;;;;;7.03;5.85;;;;;;;;;;6192554;28;20069;-85
2023/05/27 14:55:14;;;;;;;9.27;6.60;;;;;;;;;;6190022;28;20331;-86
2023/05/27 14:58:15;;;;;;;7.97;6.20;;;;;;;;;;6193726;28;20117;-85
2023/05/27 15:01:17;;;;;;;9.13;7.38;;;;;;;;;;6198890;28;20050;-86
2023/05/27 15:04:20;;;;;;;9.07;7.03;;;;;;;;;;6194822;28;20121;-86
2023/05/27 15:07:22;;;;;;;7.63;5.78;;;;;;;;;;6195819;28;20102;-86
2023/05/27 15:10:27;;;;;;;9.10;6.90;;;;;;;;;;6194285;28;20058;-87
2023/05/27 15:13:28;;;;;;;8.55;6.80;;;;;;;;;;6176193;28;20104;-87
2023/05/27 15:16:32;;;;;;;11.10;6.30;;;;;;;;;;6194460;28;20222;-88
2023/05/27 15:19:35;;;;;;;10.15;6.53;;;;;;;;;;6180772;28;20125;-87
2023/05/27 15:22:37;;;;;;;8.73;6.78;;;;;;;;;;6195462;28;20089;-86
2023/05/27 15:25:38;;;;;;;14.35;6.65;;;;;;;;;;6194571;28;20055;-87
2023/05/27 15:28:40;;;;;;;11.40;7.07;;;;;;;;;;6195816;28;20055;-86
2023/05/27 15:31:42;;;;;;;9.02;7.18;;;;;;;;;;6195862;28;20058;-86
2023/05/27 15:34:45;;;;;;;8.98;7.32;;;;;;;;;;6195163;28;20062;-87
2023/05/27 15:37:47;;;;;;;14.90;6.72;;;;;;;;;;6175847;28;20066;-87
2023/05/27 15:40:48;;;;;;;8.80;6.18;;;;;;;;;;6199660;28;20115;-86
2023/05/27 15:43:50;;;;;;;9.50;6.18;;;;;;;;;;6199759;28;20305;-86
2023/05/27 15:46:52;;;;;;;8.40;6.80;;;;;;;;;;6200304;28;20058;-86
2023/05/27 15:49:55;;;;;;;7.88;6.22;;;;;;;;;;6199881;28;20141;-86
2023/05/27 15:52:57;;;;;;;11.80;7.88;;;;;;;;;;6197491;28;20058;-86
2023/05/27 15:55:58;;;;;;;8.55;6.88;;;;;;;;;;6198745;28;20997;-87
2023/05/27 15:59:00;;;;;;;8.82;6.38;;;;;;;;;;6199757;28;20059;-87
2023/05/27 16:02:03;;;;;;;10.20;6.50;;;;;;;;;;6199042;28;20065;-84
2023/05/27 16:05:06;;;;;;;8.88;6.88;;;;;;;;;;6198557;28;20325;-87
2023/05/27 16:08:08;;;;;;;10.13;7.65;;;;;;;;;;6199685;28;20314;-87
2023/05/27 16:11:10;;;;;;;11.60;7.85;;;;;;;;;;6182954;28;20069;-87
2023/05/27 16:14:12;;;;;;;9.63;7.53;;;;;;;;;;6173819;28;20085;-87
2023/05/27 16:17:14;;;;;;;8.57;6.60;;;;;;;;;;6172099;28;20058;-86
2023/05/27 16:20:17;;;;;;;9.45;7.20;;;;;;;;;;6172195;28;20054;-86
2023/05/27 16:23:19;;;;;;;9.75;6.82;;;;;;;;;;6169890;28;20286;-87
2023/05/27 16:26:21;;;;;;;9.65;8.00;;;;;;;;;;6173617;28;20109;-87
2023/05/27 16:29:23;;;;;;;11.27;8.65;;;;;;;;;;6174574;28;20106;-87
2023/05/27 16:32:27;;;;;;;10.23;7.40;;;;;;;;;;6171486;28;20197;-86
2023/05/27 16:35:30;;;;;;;10.18;7.65;;;;;;;;;;6172691;28;20047;-84
2023/05/27 16:38:31;;;;;;;;;;;;;;;;;;6171784;28;20098;-82
2023/05/27 16:41:34;;;;;;;10.85;7.30;;;;;;;;;;6173095;28;19949;-77
2023/05/27 16:44:36;;;;;;;;;;;;;;;;;;6170359;28;20154;-77
2023/05/27 16:47:37;;;;;;;9.48;6.88;;;;;;;;;;6172540;28;19926;-77
2023/05/27 16:50:40;;;;;;;11.38;7.57;;;;;;;;;;6172468;28;20346;-78
2023/05/27 16:53:42;;;;;;;10.98;7.03;;;;;;;;;;6169947;28;20047;-77
2023/05/27 16:56:44;;;;;;;8.35;6.38;;;;;;;;;;6181232;28;20121;-72
2023/05/27 16:59:45;;;;;;;9.57;6.50;;;;;;;;;;6194158;28;20339;-72
2023/05/27 17:02:47;;;;;;;8.68;6.63;;;;;;;;;;6193249;28;20329;-83
2023/05/27 17:05:50;;;;;;;8.75;5.78;;;;;;;;;;6191675;28;20093;-83
2023/05/27 17:08:52;;;;;;;9.40;6.25;;;;;;;;;;6195408;28;20097;-82
2023/05/27 17:11:54;;;;;;;8.85;6.68;;;;;;;;;;6191035;28;20346;-83
2023/05/27 17:14:56;;;;;;;9.83;6.03;;;;;;;;;;6170924;28;20101;-81
2023/05/27 17:17:58;;;;;;;8.30;6.70;;;;;;;;;;6167414;28;20063;-79
2023/05/27 17:21:01;;;;;;;13.25;6.13;;;;;;;;;;6169743;28;20323;-82
2023/05/27 17:24:04;;;;;;;10.25;6.75;;;;;;;;;;6185875;28;20255;-76
2023/05/27 17:27:08;;;;;;;9.67;7.03;;;;;;;;;;6179649;28;20374;-86
2023/05/27 17:30:11;;;;;;;9.02;7.38;;;;;;;;;;6189766;28;20849;-88
2023/05/27 17:33:12;;;;;;;9.00;6.47;;;;;;;;;;6170157;28;20055;-86
2023/05/27 17:36:15;;;;;;;11.80;6.50;;;;;;;;;;6170033;28;20114;-83
2023/05/27 17:39:17;;;;;;;14.85;6.15;;;;;;;;;;6192455;28;20050;-80
2023/05/27 17:42:19;;;;;;;9.05;6.72;;;;;;;;;;6194301;28;20084;-79
2023/05/27 17:45:20;;;;;;;8.20;6.32;;;;;;;;;;6191133;28;20058;-88
2023/05/27 17:48:22;;;;;;;7.95;6.22;;;;;;;;;;6192457;28;20050;-85
2023/05/27 17:51:27;;;;;;;8.88;5.95;;;;;;;;;;6192382;28;20046;-87
2023/05/27 17:54:29;;;;;;;7.65;5.72;;;;;;;;;;6194612;28;20297;-82
2023/05/27 17:57:31;;;;;;;17.33;6.55;;;;;;;;;;6193145;28;20057;-88
2023/05/27 18:00:32;;;;;;;8.48;6.03;;;;;;;;;;6194511;28;20341;-84
2023/05/27 18:03:34;;;;;;;9.85;6.22;;;;;;;;;;6193712;28;20449;-88
2023/05/27 18:06:38;;;;;;;8.50;5.72;;;;;;;;;;6192638;28;20050;-79
2023/05/27 18:09:39;;;;;;;9.88;5.68;;;;;;;;;;6188943;28;20058;-83